createdAt,value
2023-06-17T00:00:52.625Z,4.15
2023-06-17T00:03:22.305Z,3.70
2023-06-17T00:05:50.512Z,4.43
2023-06-17T00:08:18.664Z,4.03
2023-06-17T00:10:46.985Z,3.90
2023-06-17T00:13:20.960Z,4.40
2023-06-17T00:15:57.870Z,3.88
2023-06-17T00:18:28.170Z,4.20
2023-06-17T00:20:58.856Z,3.73
2023-06-17T00:23:27.437Z,3.65
2023-06-17T00:25:56.370Z,4.15
2023-06-17T00:28:24.618Z,4.45
2023-06-17T00:30:54.098Z,3.55
2023-06-17T00:33:24.307Z,4.03
2023-06-17T00:35:55.890Z,3.63
2023-06-17T00:38:24.818Z,4.25
2023-06-17T00:44:41.482Z,3.97
2023-06-17T00:47:11.700Z,3.90
2023-06-17T00:49:42.490Z,4.57
2023-06-17T00:54:45.086Z,3.80
2023-06-17T00:57:15.650Z,4.05
2023-06-17T00:59:46.051Z,3.83
2023-06-17T01:02:14.724Z,3.90
2023-06-17T01:04:44.680Z,4.20
2023-06-17T01:07:26.033Z,4.18
2023-06-17T01:10:01.222Z,3.97
2023-06-17T01:12:30.596Z,4.10
2023-06-17T01:14:59.862Z,3.95
2023-06-17T01:17:29.837Z,4.28
2023-06-17T01:20:00.018Z,4.30
2023-06-17T01:22:30.472Z,4.60
2023-06-17T01:25:02.402Z,4.53
2023-06-17T01:31:43.111Z,4.32
2023-06-17T01:34:11.911Z,4.18
2023-06-17T01:36:42.238Z,4.63
2023-06-17T01:39:16.287Z,4.20
2023-06-17T01:41:49.893Z,4.35
2023-06-17T01:44:18.587Z,4.30
2023-06-17T01:46:47.508Z,4.53
2023-06-17T01:49:17.018Z,4.35
2023-06-17T01:51:45.318Z,4.60
2023-06-17T01:54:13.741Z,4.22
2023-06-17T01:56:42.235Z,4.35
2023-06-17T01:59:11.994Z,4.72
2023-06-17T02:01:40.305Z,3.97
2023-06-17T02:04:08.552Z,4.63
2023-06-17T02:06:40.922Z,4.00
2023-06-17T02:09:09.927Z,4.32
2023-06-17T02:11:38.245Z,4.07
2023-06-17T02:17:57.572Z,3.83
2023-06-17T02:20:26.289Z,4.20
2023-06-17T02:22:54.924Z,4.32
2023-06-17T02:25:24.388Z,4.30
2023-06-17T02:27:52.732Z,4.25
2023-06-17T02:30:24.014Z,4.30
2023-06-17T02:32:52.837Z,4.20
2023-06-17T02:35:23.697Z,3.88
2023-06-17T02:37:51.964Z,4.72
2023-06-17T02:40:20.636Z,4.57
2023-06-17T02:42:52.355Z,3.70
2023-06-17T02:45:20.696Z,4.32
2023-06-17T02:47:49.230Z,4.45
2023-06-17T02:50:24.574Z,4.63
2023-06-17T02:52:57.251Z,4.68
2023-06-17T02:55:28.367Z,3.97
2023-06-17T02:57:58.108Z,3.75
2023-06-17T03:00:28.707Z,4.28
2023-06-17T03:02:57.394Z,4.32
2023-06-17T03:05:27.815Z,4.03
2023-06-17T03:07:56.220Z,4.23
2023-06-17T03:14:20.608Z,4.60
2023-06-17T03:16:49.954Z,4.50
2023-06-17T03:19:19.074Z,4.70
2023-06-17T03:21:50.332Z,4.30
2023-06-17T03:24:19.149Z,4.78
2023-06-17T03:26:48.146Z,4.78
2023-06-17T03:29:17.762Z,4.38
2023-06-17T03:31:47.470Z,4.35
2023-06-17T03:34:16.235Z,4.50
2023-06-17T03:36:49.374Z,4.40
2023-06-17T03:39:19.166Z,5.05
2023-06-17T03:41:47.699Z,4.32
2023-06-17T03:44:16.340Z,4.43
2023-06-17T03:46:45.134Z,4.77
2023-06-17T03:49:13.915Z,4.22
2023-06-17T03:51:42.167Z,4.95
2023-06-17T03:54:10.512Z,4.85
2023-06-17T03:56:41.383Z,4.90
2023-06-17T03:59:12.215Z,4.53
2023-06-17T04:01:41.541Z,4.30
2023-06-17T04:04:10.427Z,4.40
2023-06-17T04:06:38.723Z,4.28
2023-06-17T04:09:06.964Z,4.50
2023-06-17T04:11:36.321Z,4.83
2023-06-17T04:14:06.050Z,5.20
2023-06-17T04:16:36.641Z,5.35
2023-06-17T04:19:04.891Z,4.95
2023-06-17T04:21:33.148Z,4.88
2023-06-17T04:24:01.577Z,5.10
2023-06-17T04:26:30.215Z,5.20
2023-06-17T04:28:59.455Z,4.57
2023-06-17T04:31:29.568Z,5.35
2023-06-17T04:33:58.259Z,5.15
2023-06-17T04:36:26.629Z,4.87
2023-06-17T04:38:55.058Z,4.95
2023-06-17T04:41:25.149Z,5.03
2023-06-17T04:47:44.375Z,5.60
2023-06-17T04:50:17.930Z,5.70
2023-06-17T04:52:49.912Z,5.63
2023-06-17T04:55:23.080Z,6.00
2023-06-17T04:57:51.552Z,5.75
2023-06-17T05:00:58.367Z,5.65
2023-06-17T05:03:35.783Z,5.80
2023-06-17T05:06:04.148Z,5.32
2023-06-17T05:08:33.421Z,6.53
2023-06-17T05:11:02.188Z,5.97
2023-06-17T05:13:31.797Z,5.72
2023-06-17T05:16:00.992Z,5.63
2023-06-17T05:18:31.266Z,6.18
2023-06-17T05:21:01.337Z,6.53
2023-06-17T05:23:29.589Z,5.78
2023-06-17T05:25:57.988Z,6.50
2023-06-17T05:28:26.573Z,5.93
2023-06-17T05:31:32.101Z,5.78
2023-06-17T05:34:01.172Z,6.38
2023-06-17T05:36:30.861Z,6.43
2023-06-17T05:38:59.323Z,6.40
2023-06-17T05:41:27.787Z,5.97
2023-06-17T05:43:56.584Z,6.40
2023-06-17T05:46:25.366Z,6.10
2023-06-17T05:48:53.706Z,6.00
2023-06-17T05:51:22.642Z,6.28
2023-06-17T05:53:53.039Z,6.70
2023-06-17T05:56:21.534Z,6.20
2023-06-17T05:58:49.767Z,6.78
2023-06-17T06:01:27.243Z,6.60
2023-06-17T06:03:55.893Z,6.82
2023-06-17T06:06:24.450Z,5.93
2023-06-17T06:08:54.119Z,6.20
2023-06-17T06:11:23.209Z,6.07
2023-06-17T06:13:51.632Z,6.07
2023-06-17T06:20:28.331Z,6.07
2023-06-17T06:22:57.416Z,6.05
2023-06-17T06:25:27.415Z,6.65
2023-06-17T06:27:56.546Z,5.88
2023-06-17T06:30:28.568Z,5.72
2023-06-17T06:32:57.800Z,6.03
2023-06-17T06:35:27.294Z,5.72
2023-06-17T06:37:56.473Z,6.05
2023-06-17T06:40:25.328Z,6.50
2023-06-17T06:42:55.272Z,6.35
2023-06-17T06:45:40.573Z,5.73
2023-06-17T06:48:09.403Z,6.75
2023-06-17T06:50:39.164Z,6.70
2023-06-17T06:53:09.481Z,5.63
2023-06-17T06:55:37.984Z,6.63
2023-06-17T06:58:08.114Z,5.97
2023-06-17T07:00:36.955Z,5.65
2023-06-17T07:06:57.732Z,5.50
2023-06-17T07:09:31.045Z,6.00
2023-06-17T07:11:59.400Z,5.53
2023-06-17T07:14:29.259Z,5.22
2023-06-17T07:16:57.664Z,5.18
2023-06-17T07:19:26.146Z,5.35
2023-06-17T07:21:55.184Z,5.32
2023-06-17T07:24:24.333Z,5.63
2023-06-17T07:26:52.807Z,5.60
2023-06-17T07:29:21.666Z,4.60
2023-06-17T07:31:51.364Z,5.13
2023-06-17T07:34:19.646Z,5.20
2023-06-17T07:36:53.495Z,5.23
2023-06-17T07:39:21.947Z,4.70
2023-06-17T07:41:50.115Z,5.57
2023-06-17T07:44:18.923Z,5.80
2023-06-17T07:46:47.248Z,5.90
2023-06-17T07:53:04.609Z,4.82
2023-06-17T07:55:33.422Z,5.40
2023-06-17T07:58:02.311Z,4.85
2023-06-17T08:00:30.656Z,4.88
2023-06-17T08:02:59.068Z,4.70
2023-06-17T08:05:27.539Z,5.70
2023-06-17T08:07:55.729Z,5.07
2023-06-17T08:10:25.464Z,5.45
2023-06-17T08:12:53.808Z,6.28
2023-06-17T08:15:23.450Z,5.53
2023-06-17T08:17:53.884Z,5.85
2023-06-17T08:20:23.104Z,5.70
2023-06-17T08:22:51.708Z,5.43
2023-06-17T08:25:19.930Z,6.05
2023-06-17T08:27:49.646Z,5.13
2023-06-17T08:30:18.635Z,5.00
2023-06-17T08:32:47.428Z,5.65
2023-06-17T08:39:28.318Z,5.50
2023-06-17T08:41:56.841Z,5.80
2023-06-17T08:44:27.384Z,5.38
2023-06-17T08:46:57.286Z,6.60
2023-06-17T08:49:26.985Z,5.68
2023-06-17T08:51:56.223Z,5.47
2023-06-17T08:54:26.826Z,5.37
2023-06-17T08:56:55.208Z,5.22
2023-06-17T08:59:23.435Z,6.38
2023-06-17T09:01:54.404Z,5.55
2023-06-17T09:04:23.489Z,5.47
2023-06-17T09:06:52.317Z,6.10
2023-06-17T09:09:21.498Z,5.38
2023-06-17T09:11:52.801Z,5.47
2023-06-17T09:14:26.229Z,5.03
2023-06-17T09:16:55.958Z,5.18
2023-06-17T09:19:25.185Z,5.90
2023-06-17T09:25:41.650Z,5.68
2023-06-17T09:28:16.136Z,5.65
2023-06-17T09:30:45.623Z,4.97
2023-06-17T09:33:20.610Z,4.80
2023-06-17T09:35:49.239Z,5.53
2023-06-17T09:38:19.528Z,5.18
2023-06-17T09:40:51.186Z,5.60
2023-06-17T09:45:56.548Z,5.30
2023-06-17T09:48:31.012Z,5.40
2023-06-17T09:51:00.254Z,5.30
2023-06-17T09:53:30.613Z,4.78
2023-06-17T09:56:00.923Z,5.90
2023-06-17T09:58:32.006Z,5.33
2023-06-17T10:01:02.363Z,5.60
2023-06-17T10:03:32.507Z,5.43
2023-06-17T10:06:05.294Z,4.78
2023-06-17T10:09:23.167Z,4.95
2023-06-17T10:11:55.090Z,4.57
2023-06-17T10:14:26.456Z,4.80
2023-06-17T10:16:56.281Z,4.68
2023-06-17T10:19:29.978Z,4.57
2023-06-17T10:22:01.288Z,4.82
2023-06-17T10:24:30.048Z,5.07
2023-06-17T10:27:05.239Z,4.68
2023-06-17T10:29:34.845Z,5.40
2023-06-17T10:32:18.635Z,4.70
2023-06-17T10:35:13.854Z,5.28
2023-06-17T10:37:43.511Z,5.40
2023-06-17T10:40:23.708Z,5.20
2023-06-17T10:42:58.368Z,5.60
2023-06-17T10:45:27.273Z,5.70
2023-06-17T10:48:15.729Z,4.90
2023-06-17T10:50:48.773Z,4.77
2023-06-17T10:53:19.541Z,4.90
2023-06-17T10:55:47.976Z,4.90
2023-06-17T10:58:16.155Z,4.93
2023-06-17T11:00:44.969Z,4.72
2023-06-17T11:03:16.422Z,5.07
2023-06-17T11:05:48.891Z,4.72
2023-06-17T11:08:17.519Z,4.90
2023-06-17T11:10:45.796Z,4.68
2023-06-17T11:13:14.134Z,5.63
2023-06-17T11:15:42.354Z,4.77
2023-06-17T11:18:11.268Z,4.40
2023-06-17T11:20:39.818Z,4.93
2023-06-17T11:23:10.445Z,4.45
2023-06-17T11:25:45.032Z,4.70
2023-06-17T11:28:14.245Z,4.97
2023-06-17T11:30:42.810Z,5.20
2023-06-17T11:33:11.554Z,5.00
2023-06-17T11:35:40.169Z,5.40
2023-06-17T11:38:10.282Z,5.53
2023-06-17T11:44:26.279Z,4.90
2023-06-17T11:46:57.348Z,6.00
2023-06-17T11:49:29.478Z,4.97
2023-06-17T11:52:02.255Z,5.47
2023-06-17T11:54:31.889Z,5.27
2023-06-17T11:57:00.888Z,5.13
2023-06-17T11:59:30.078Z,5.95
2023-06-17T12:01:58.319Z,5.00
2023-06-17T12:04:27.029Z,5.10
2023-06-17T12:06:55.385Z,4.90
2023-06-17T12:09:23.828Z,4.53
2023-06-17T12:11:53.459Z,5.00
2023-06-17T12:14:22.029Z,5.22
2023-06-17T12:16:50.335Z,4.63
2023-06-17T12:19:23.664Z,5.00
2023-06-17T12:21:52.349Z,5.43
2023-06-17T12:24:22.163Z,5.00
2023-06-17T12:27:57.983Z,6.20
2023-06-17T12:30:27.651Z,5.60
2023-06-17T12:32:56.399Z,5.30
2023-06-17T12:35:25.808Z,5.50
2023-06-17T12:37:55.770Z,5.90
2023-06-17T12:40:24.557Z,6.28
2023-06-17T12:42:52.982Z,6.00
2023-06-17T12:45:22.954Z,6.07
2023-06-17T12:47:53.240Z,6.80
2023-06-17T12:50:21.613Z,6.65
2023-06-17T12:52:52.703Z,6.45
2023-06-17T12:55:21.252Z,6.50
2023-06-17T12:57:49.652Z,6.20
2023-06-17T13:00:18.930Z,6.70
2023-06-17T13:02:47.921Z,6.45
2023-06-17T13:05:17.838Z,5.43
2023-06-17T13:07:46.076Z,5.65
2023-06-17T13:10:14.335Z,4.93
2023-06-17T13:16:49.407Z,6.57
2023-06-17T13:19:18.427Z,6.45
2023-06-17T13:21:48.157Z,6.82
2023-06-17T13:24:16.415Z,7.47
2023-06-17T13:26:44.909Z,6.80
2023-06-17T13:29:13.205Z,8.05
2023-06-17T13:31:41.444Z,7.00
2023-06-17T13:34:09.830Z,7.00
2023-06-17T13:36:40.389Z,6.93
2023-06-17T13:39:10.596Z,7.50
2023-06-17T13:41:38.864Z,6.82
2023-06-17T13:44:09.115Z,8.15
2023-06-17T13:46:37.603Z,7.88
2023-06-17T13:49:06.009Z,7.77
2023-06-17T13:51:34.314Z,7.15
2023-06-17T13:54:02.903Z,7.07
2023-06-17T13:56:32.546Z,6.95
2023-06-17T14:03:16.435Z,5.87
2023-06-17T14:05:46.049Z,5.60
2023-06-17T14:08:14.510Z,5.90
2023-06-17T14:10:42.788Z,5.75
2023-06-17T14:13:13.142Z,5.40
2023-06-17T14:15:41.495Z,5.03
2023-06-17T14:18:09.867Z,5.53
2023-06-17T14:20:38.181Z,5.22
2023-06-17T14:23:07.513Z,5.40
2023-06-17T14:25:35.896Z,5.10
2023-06-17T14:28:05.726Z,5.30
2023-06-17T14:30:35.955Z,4.88
2023-06-17T14:33:04.334Z,5.45
2023-06-17T14:35:32.736Z,4.70
2023-06-17T14:38:00.947Z,5.20
2023-06-17T14:40:30.092Z,4.57
2023-06-17T14:42:58.471Z,5.47
2023-06-17T14:49:03.231Z,5.25
2023-06-17T14:51:31.501Z,4.95
2023-06-17T14:53:59.714Z,5.07
2023-06-17T14:56:29.110Z,5.38
2023-06-17T14:58:57.837Z,5.22
2023-06-17T15:01:34.677Z,4.80
2023-06-17T15:04:03.454Z,5.03
2023-06-17T15:06:32.705Z,5.20
2023-06-17T15:09:26.342Z,4.93
2023-06-17T15:11:56.398Z,5.40
2023-06-17T15:14:25.834Z,4.97
2023-06-17T15:16:56.798Z,4.88
2023-06-17T15:19:25.046Z,4.80
2023-06-17T15:21:53.334Z,5.40
2023-06-17T15:24:21.646Z,5.20
2023-06-17T15:26:49.989Z,5.05
2023-06-17T15:29:18.464Z,4.68
2023-06-17T15:35:39.074Z,4.43
2023-06-17T15:38:07.542Z,5.15
2023-06-17T15:40:36.209Z,5.13
2023-06-17T15:43:04.632Z,5.07
2023-06-17T15:45:32.995Z,4.90
2023-06-17T15:48:02.714Z,5.03
2023-06-17T15:50:31.094Z,5.50
2023-06-17T15:52:59.369Z,5.38
2023-06-17T15:55:27.724Z,5.35
2023-06-17T15:57:56.097Z,6.10
2023-06-17T16:00:24.595Z,5.20
2023-06-17T16:02:53.448Z,5.10
2023-06-17T16:05:23.573Z,4.55
2023-06-17T16:07:52.059Z,4.70
2023-06-17T16:10:21.349Z,5.10
2023-06-17T16:12:50.193Z,4.93
2023-06-17T16:15:18.571Z,5.03
2023-06-17T16:17:47.172Z,4.70
2023-06-17T16:20:15.543Z,5.10
2023-06-17T16:22:45.401Z,5.00
2023-06-17T16:25:13.631Z,5.15
2023-06-17T16:27:41.904Z,5.47
2023-06-17T16:30:11.176Z,4.57
2023-06-17T16:32:39.463Z,5.57
2023-06-17T16:35:09.613Z,5.10
2023-06-17T16:37:38.056Z,4.90
2023-06-17T16:40:08.903Z,4.40
2023-06-17T16:42:37.356Z,5.50
2023-06-17T16:45:06.702Z,5.13
2023-06-17T16:47:34.985Z,4.60
2023-06-17T16:50:03.252Z,4.75
2023-06-17T16:52:31.870Z,4.47
2023-06-17T16:55:01.270Z,4.78
2023-06-17T16:57:30.843Z,5.10
2023-06-17T16:59:59.224Z,5.00
2023-06-17T17:02:27.684Z,4.53
2023-06-17T17:08:56.117Z,5.30
2023-06-17T17:11:24.426Z,5.95
2023-06-17T17:13:54.024Z,5.30
2023-06-17T17:16:22.372Z,5.10
2023-06-17T17:18:50.833Z,5.63
2023-06-17T17:21:19.234Z,5.65
2023-06-17T17:23:47.709Z,5.15
2023-06-17T17:26:16.170Z,4.90
2023-06-17T17:28:44.552Z,5.20
2023-06-17T17:31:14.143Z,5.30
2023-06-17T17:33:44.511Z,4.55
2023-06-17T17:36:13.991Z,4.45
2023-06-17T17:38:43.375Z,5.20
2023-06-17T17:41:12.352Z,4.43
2023-06-17T17:43:40.997Z,5.28
2023-06-17T17:46:10.518Z,4.75
2023-06-17T17:48:40.525Z,5.40
2023-06-17T17:55:20.949Z,4.90
2023-06-17T17:57:49.231Z,4.70
2023-06-17T18:00:17.936Z,4.70
2023-06-17T18:02:47.584Z,5.15
2023-06-17T18:05:17.298Z,4.63
2023-06-17T18:07:46.934Z,5.00
2023-06-17T18:10:17.240Z,5.30
2023-06-17T18:12:45.728Z,5.20
2023-06-17T18:15:13.980Z,5.20
2023-06-17T18:17:42.574Z,4.77
2023-06-17T18:20:11.291Z,5.00
2023-06-17T18:22:41.047Z,5.35
2023-06-17T18:25:09.967Z,5.55
2023-06-17T18:27:39.733Z,5.30
2023-06-17T18:30:10.338Z,4.60
2023-06-17T18:32:38.550Z,4.65
2023-06-17T18:35:07.723Z,5.22
2023-06-17T18:41:31.369Z,5.10
2023-06-17T18:44:00.869Z,4.77
2023-06-17T18:46:29.186Z,5.15
2023-06-17T18:48:57.771Z,5.45
2023-06-17T18:51:26.142Z,4.93
2023-06-17T18:53:55.799Z,5.03
2023-06-17T18:56:24.043Z,5.17
2023-06-17T18:58:52.704Z,5.20
2023-06-17T19:01:21.033Z,5.50
2023-06-17T19:03:49.313Z,5.43
2023-06-17T19:06:17.967Z,5.57
2023-06-17T19:08:46.323Z,5.53
2023-06-17T19:11:16.485Z,5.78
2023-06-17T19:13:45.745Z,5.88
2023-06-17T19:16:14.715Z,6.20
2023-06-17T19:18:42.962Z,6.95
2023-06-17T19:21:11.272Z,6.27
2023-06-17T19:24:09.513Z,6.40
2023-06-17T19:26:39.284Z,6.70
2023-06-17T19:29:07.541Z,6.13
2023-06-17T19:31:35.907Z,6.00
2023-06-17T19:34:04.384Z,5.30
2023-06-17T19:36:32.708Z,5.75
2023-06-17T19:39:00.924Z,5.47
2023-06-17T19:41:30.684Z,5.43
2023-06-17T19:44:00.600Z,5.40
2023-06-17T19:46:29.038Z,4.90
2023-06-17T19:48:57.393Z,5.60
2023-06-17T19:51:26.152Z,5.78
2023-06-17T19:53:54.504Z,5.18
2023-06-17T19:56:24.872Z,4.97
2023-06-17T19:58:53.931Z,5.23
2023-06-17T20:01:24.385Z,5.97
2023-06-17T20:03:52.888Z,5.78
2023-06-17T20:06:21.393Z,5.55
2023-06-17T20:13:01.859Z,5.47
2023-06-17T20:15:30.550Z,5.40
2023-06-17T20:18:00.657Z,5.95
2023-06-17T20:20:31.234Z,5.50
2023-06-17T20:22:59.486Z,6.43
2023-06-17T20:25:27.747Z,6.30
2023-06-17T20:27:55.954Z,6.20
2023-06-17T20:30:24.519Z,5.65
2023-06-17T20:32:53.096Z,5.97
2023-06-17T20:35:22.809Z,6.15
2023-06-17T20:37:51.063Z,5.70
2023-06-17T20:40:19.558Z,6.15
2023-06-17T20:42:48.337Z,5.88
2023-06-17T20:45:16.908Z,6.20
2023-06-17T20:47:45.332Z,6.13
2023-06-17T20:50:13.796Z,5.67
2023-06-17T20:52:43.539Z,6.05
2023-06-17T20:59:22.485Z,5.53
2023-06-17T21:01:50.847Z,6.10
2023-06-17T21:04:19.560Z,5.83
2023-06-17T21:06:47.702Z,6.75
2023-06-17T21:09:17.299Z,6.60
2023-06-17T21:11:45.458Z,6.60
2023-06-17T21:14:14.629Z,6.68
2023-06-17T21:16:42.925Z,6.27
2023-06-17T21:19:11.643Z,6.10
2023-06-17T21:21:39.812Z,6.80
2023-06-17T21:24:08.068Z,6.47
2023-06-17T21:26:37.641Z,6.20
2023-06-17T21:29:05.874Z,6.27
2023-06-17T21:31:34.072Z,6.10
2023-06-17T21:34:02.378Z,6.05
2023-06-17T21:36:30.627Z,6.22
2023-06-17T21:38:58.968Z,6.15
2023-06-17T21:41:27.865Z,6.17
2023-06-17T21:43:57.637Z,6.55
2023-06-17T21:46:29.193Z,6.32
2023-06-17T21:48:57.766Z,5.93
2023-06-17T21:51:26.099Z,6.25
2023-06-17T21:53:54.651Z,6.03
2023-06-17T21:56:23.169Z,5.78
2023-06-17T21:58:51.330Z,6.63
2023-06-17T22:01:21.052Z,6.43
2023-06-17T22:03:49.542Z,6.88
2023-06-17T22:06:17.790Z,6.47
2023-06-17T22:08:46.000Z,7.13
2023-06-17T22:11:14.363Z,6.57
2023-06-17T22:13:42.584Z,6.40
2023-06-17T22:16:12.674Z,6.80
2023-06-17T22:18:42.672Z,6.60
2023-06-17T22:21:11.300Z,7.18
2023-06-17T22:23:39.552Z,7.03
2023-06-17T22:26:07.948Z,7.20
2023-06-17T22:32:05.257Z,6.83
2023-06-17T22:34:36.397Z,6.75
2023-06-17T22:37:05.489Z,7.78
2023-06-17T22:39:33.754Z,6.72
2023-06-17T22:42:02.026Z,6.32
2023-06-17T22:44:30.828Z,7.30
2023-06-17T22:46:59.131Z,8.02
2023-06-17T22:49:27.390Z,7.35
2023-06-17T22:51:56.962Z,7.13
2023-06-17T22:54:25.212Z,7.22
2023-06-17T22:56:53.391Z,7.37
2023-06-17T22:59:21.683Z,7.30
2023-06-17T23:01:49.922Z,7.10
2023-06-17T23:04:18.201Z,6.85
2023-06-17T23:06:46.432Z,7.63
2023-06-17T23:09:16.533Z,7.50
2023-06-17T23:11:44.919Z,7.70
2023-06-17T23:18:15.980Z,7.32
2023-06-17T23:20:45.011Z,7.95
2023-06-17T23:23:13.656Z,7.20
2023-06-17T23:25:43.779Z,7.57
2023-06-17T23:28:12.675Z,6.88
2023-06-17T23:30:41.010Z,7.43
2023-06-17T23:33:11.928Z,7.20
2023-06-17T23:35:40.200Z,7.13
2023-06-17T23:38:08.783Z,6.97
2023-06-17T23:40:37.645Z,7.53
2023-06-17T23:43:07.338Z,7.25
2023-06-17T23:45:35.530Z,7.78
2023-06-17T23:48:03.881Z,7.63
2023-06-17T23:50:32.337Z,7.82
2023-06-17T23:53:00.898Z,7.10
2023-06-17T23:55:29.060Z,7.60
2023-06-17T23:57:57.449Z,7.50
